^^
TXWeather Station Historical Data
Daily Summary for May 25, 2022 Units:  English    Metric   Both
Daily Weekly Monthly Yearly Custom
  High: Low: Average:
Temperature: 84.0 °F 63.0 °F 73.1 °F
Dew Point: 69.0 °F 59.0 °F 63.6 °F
Humidity: 92% 50% 74%
Wind Speed: 20mph 0mph 6.5mph
Wind Gust: 23mph - -
Wind- - West
Pressure: 30.0 in 29.8 in -
Precipitation: 0.590 in    
Historical Graphs
 
 
Tabular Data for May 25, 2022
Time Temperature Dew Point Pressure Wind Wind Speed Wind Gust Humidity Rainfall Rate (Hourly) solar
00:04 74.0 °F 68.0 °F 29.8 in SE 6 mph 7 mph 83% 0.000 in 0.00 W/m2
00:09 74.0 °F 68.0 °F 29.8 in SE 4 mph 7 mph 83% 0.000 in 0.00 W/m2
00:14 74.0 °F 69.0 °F 29.8 in SE 5 mph 7 mph 84% 0.000 in 0.00 W/m2
00:19 74.0 °F 69.0 °F 29.8 in SE 7 mph 7 mph 84% 0.000 in 0.00 W/m2
00:24 74.0 °F 69.0 °F 29.8 in SE 5 mph 6 mph 84% 0.000 in 0.00 W/m2
00:29 74.0 °F 69.0 °F 29.8 in SE 7 mph 7 mph 84% 0.000 in 0.00 W/m2
00:34 74.0 °F 69.0 °F 29.8 in SE 5 mph 5 mph 84% 0.000 in 0.00 W/m2
00:39 74.0 °F 69.0 °F 29.8 in SE 5 mph 5 mph 84% 0.000 in 0.00 W/m2
00:44 74.0 °F 69.0 °F 29.8 in SE 4 mph 5 mph 84% 0.000 in 0.00 W/m2
00:49 74.0 °F 69.0 °F 29.8 in SE 4 mph 4 mph 84% 0.000 in 0.00 W/m2
00:54 74.0 °F 69.0 °F 29.8 in SE 3 mph 4 mph 84% 0.000 in 0.00 W/m2
00:59 74.0 °F 69.0 °F 29.8 in SE 4 mph 6 mph 85% 0.000 in 0.00 W/m2
01:04 74.0 °F 69.0 °F 29.8 in SE 5 mph 5 mph 85% 0.000 in 0.00 W/m2
01:09 74.0 °F 69.0 °F 29.8 in SE 3 mph 5 mph 85% 0.000 in 0.00 W/m2
01:14 74.0 °F 69.0 °F 29.8 in SSE 2 mph 2 mph 85% 0.000 in 0.00 W/m2
01:19 74.0 °F 69.0 °F 29.8 in SSE 3 mph 3 mph 85% 0.000 in 0.00 W/m2
01:24 74.0 °F 69.0 °F 29.8 in SE 3 mph 3 mph 85% 0.000 in 0.00 W/m2
01:29 74.0 °F 69.0 °F 29.8 in SE 3 mph 3 mph 85% 0.000 in 0.00 W/m2
01:34 74.0 °F 69.0 °F 29.8 in SE 4 mph 4 mph 85% 0.000 in 0.00 W/m2
01:39 74.0 °F 69.0 °F 29.8 in SE 3 mph 4 mph 85% 0.000 in 0.00 W/m2
01:44 74.0 °F 69.0 °F 29.8 in SE 3 mph 5 mph 85% 0.000 in 0.00 W/m2
01:49 74.0 °F 69.0 °F 29.8 in SSE 2 mph 5 mph 85% 0.000 in 0.00 W/m2
01:54 74.0 °F 69.0 °F 29.8 in SSE 4 mph 4 mph 85% 0.000 in 0.00 W/m2
01:59 74.0 °F 69.0 °F 29.8 in SSE 1 mph 2 mph 85% 0.000 in 0.00 W/m2
02:04 74.0 °F 69.0 °F 29.8 in South 3 mph 3 mph 85% 0.000 in 0.00 W/m2
02:09 74.0 °F 69.0 °F 29.8 in NW 7 mph 8 mph 86% 0.000 in 0.00 W/m2
02:14 74.0 °F 69.0 °F 29.8 in NW 9 mph 9 mph 86% 0.000 in 0.00 W/m2
02:19 74.0 °F 69.0 °F 29.8 in NW 10 mph 11 mph 86% 0.000 in 0.00 W/m2
02:24 74.0 °F 69.0 °F 29.8 in NW 10 mph 10 mph 86% 0.000 in 0.00 W/m2
02:29 74.0 °F 69.0 °F 29.8 in NW 7 mph 7 mph 86% 0.000 in 0.00 W/m2
02:34 74.0 °F 69.0 °F 29.8 in NW 6 mph 7 mph 86% 0.000 in 0.00 W/m2
02:39 74.0 °F 69.0 °F 29.9 in WNW 17 mph 17 mph 86% 0.010 in 0.00 W/m2
02:44 73.0 °F 69.0 °F 29.9 in West 19 mph 23 mph 86% 0.010 in 0.00 W/m2
02:49 71.0 °F 65.0 °F 29.9 in WNW 20 mph 20 mph 82% 0.020 in 0.00 W/m2
02:54 69.0 °F 63.0 °F 29.9 in NW 19 mph 20 mph 83% 0.030 in 0.00 W/m2
02:59 67.0 °F 62.0 °F 29.9 in WNW 16 mph 20 mph 84% 0.050 in 0.00 W/m2
03:04 66.0 °F 61.0 °F 29.9 in NW 19 mph 22 mph 85% 0.060 in 0.00 W/m2
03:09 66.0 °F 61.0 °F 29.9 in NW 18 mph 18 mph 86% 0.080 in 0.00 W/m2
03:14 65.0 °F 61.0 °F 29.9 in NW 17 mph 18 mph 87% 0.090 in 0.00 W/m2
03:19 65.0 °F 61.0 °F 29.9 in NW 18 mph 18 mph 87% 0.110 in 0.00 W/m2
03:24 65.0 °F 61.0 °F 29.9 in WNW 11 mph 18 mph 88% 0.120 in 0.00 W/m2
03:29 65.0 °F 61.0 °F 29.9 in WNW 14 mph 14 mph 88% 0.130 in 0.00 W/m2
03:34 65.0 °F 61.0 °F 29.9 in WNW 14 mph 14 mph 88% 0.140 in 0.00 W/m2
03:39 65.0 °F 61.0 °F 29.9 in NW 10 mph 10 mph 89% 0.150 in 0.00 W/m2
03:44 64.0 °F 61.0 °F 29.9 in WNW 8 mph 8 mph 89% 0.160 in 0.00 W/m2
03:49 64.0 °F 61.0 °F 29.9 in NW 8 mph 9 mph 89% 0.160 in 0.00 W/m2
03:54 64.0 °F 61.0 °F 29.9 in NW 11 mph 11 mph 89% 0.170 in 0.00 W/m2
03:59 64.0 °F 61.0 °F 29.9 in NW 10 mph 11 mph 89% 0.160 in 0.00 W/m2
04:04 64.0 °F 61.0 °F 29.9 in NNW 10 mph 11 mph 89% 0.160 in 0.00 W/m2
04:09 64.0 °F 61.0 °F 29.9 in NW 9 mph 11 mph 89% 0.160 in 0.00 W/m2
04:14 64.0 °F 61.0 °F 29.9 in NW 9 mph 9 mph 90% 0.150 in 0.00 W/m2
04:19 64.0 °F 61.0 °F 29.9 in WNW 5 mph 5 mph 90% 0.150 in 0.00 W/m2
04:24 64.0 °F 61.0 °F 29.9 in NW 4 mph 5 mph 90% 0.150 in 0.00 W/m2
04:29 64.0 °F 61.0 °F 29.9 in North 5 mph 5 mph 90% 0.150 in 0.00 W/m2
04:34 64.0 °F 61.0 °F 29.9 in NNE 4 mph 5 mph 90% 0.150 in 0.00 W/m2
04:39 64.0 °F 61.0 °F 29.9 in ENE 3 mph 5 mph 90% 0.140 in 0.00 W/m2
04:44 64.0 °F 61.0 °F 29.9 in ESE 3 mph 5 mph 90% 0.140 in 0.00 W/m2
04:49 64.0 °F 61.0 °F 29.9 in ESE 2 mph 3 mph 90% 0.140 in 0.00 W/m2
04:54 64.0 °F 61.0 °F 29.9 in ESE 3 mph 3 mph 90% 0.140 in 0.00 W/m2
05:04 64.0 °F 61.0 °F 29.9 in ESE 6 mph 7 mph 90% 0.140 in 0.00 W/m2
05:09 64.0 °F 61.0 °F 29.8 in SE 7 mph 7 mph 90% 0.140 in 0.00 W/m2
05:14 64.0 °F 61.0 °F 29.8 in SE 8 mph 9 mph 90% 0.140 in 0.00 W/m2
05:19 64.0 °F 61.0 °F 29.8 in SE 10 mph 10 mph 90% 0.140 in 0.00 W/m2
05:24 64.0 °F 61.0 °F 29.8 in SE 9 mph 9 mph 90% 0.140 in 0.00 W/m2
05:29 64.0 °F 61.0 °F 29.8 in SE 9 mph 9 mph 90% 0.150 in 0.00 W/m2
05:34 64.0 °F 61.0 °F 29.8 in ESE 6 mph 9 mph 90% 0.150 in 0.00 W/m2
05:39 64.0 °F 61.0 °F 29.8 in SE 8 mph 8 mph 90% 0.150 in 0.00 W/m2
05:44 64.0 °F 61.0 °F 29.8 in SE 11 mph 13 mph 91% 0.150 in 0.00 W/m2
05:49 64.0 °F 61.0 °F 29.8 in SE 6 mph 9 mph 91% 0.140 in 0.00 W/m2
05:54 64.0 °F 61.0 °F 29.8 in East 7 mph 8 mph 91% 0.140 in 0.00 W/m2
05:59 64.0 °F 61.0 °F 29.8 in SE 10 mph 13 mph 91% 0.140 in 0.00 W/m2
06:04 64.0 °F 61.0 °F 29.8 in SE 11 mph 13 mph 91% 0.140 in 0.00 W/m2
06:09 64.0 °F 61.0 °F 29.8 in ENE 4 mph 9 mph 91% 0.130 in 0.00 W/m2
06:14 64.0 °F 61.0 °F 29.8 in ESE 3 mph 5 mph 91% 0.130 in 0.00 W/m2
06:19 64.0 °F 61.0 °F 29.8 in SW 4 mph 5 mph 91% 0.130 in 0.00 W/m2
06:24 64.0 °F 61.0 °F 29.8 in North 5 mph 6 mph 91% 0.120 in 0.00 W/m2
06:29 63.0 °F 61.0 °F 29.8 in NNW 5 mph 7 mph 91% 0.120 in 0.00 W/m2
06:34 63.0 °F 61.0 °F 29.8 in ENE 4 mph 7 mph 91% 0.120 in 0.00 W/m2
06:39 63.0 °F 61.0 °F 29.8 in NNE 6 mph 9 mph 91% 0.110 in 0.00 W/m2
06:44 63.0 °F 61.0 °F 29.8 in ESE 9 mph 9 mph 91% 0.110 in 0.00 W/m2
06:49 63.0 °F 61.0 °F 29.8 in WSW 4 mph 5 mph 91% 0.100 in 7.00 W/m2
06:54 63.0 °F 61.0 °F 29.8 in South 2 mph 5 mph 91% 0.100 in 12.00 W/m2
06:59 63.0 °F 61.0 °F 29.8 in SSE 3 mph 3 mph 91% 0.090 in 16.00 W/m2
07:04 63.0 °F 61.0 °F 29.8 in SSE 1 mph 2 mph 91% 0.090 in 16.00 W/m2
07:09 63.0 °F 61.0 °F 29.8 in SSE 3 mph 4 mph 91% 0.090 in 21.00 W/m2
07:14 64.0 °F 61.0 °F 29.8 in SE 4 mph 7 mph 91% 0.090 in 32.00 W/m2
07:19 64.0 °F 61.0 °F 29.8 in SE 7 mph 7 mph 91% 0.080 in 35.00 W/m2
07:24 64.0 °F 61.0 °F 29.8 in SSE 6 mph 6 mph 91% 0.080 in 32.00 W/m2
07:29 64.0 °F 61.0 °F 29.8 in SSE 4 mph 5 mph 91% 0.070 in 39.00 W/m2
07:34 64.0 °F 61.0 °F 29.8 in SSE 5 mph 5 mph 91% 0.060 in 49.00 W/m2
07:39 64.0 °F 61.0 °F 29.8 in SSE 5 mph 6 mph 91% 0.060 in 51.00 W/m2
07:44 64.0 °F 61.0 °F 29.8 in SSE 4 mph 5 mph 91% 0.050 in 56.00 W/m2
07:49 64.0 °F 61.0 °F 29.8 in SSE 5 mph 5 mph 91% 0.040 in 56.00 W/m2
07:54 64.0 °F 62.0 °F 29.8 in SSE 2 mph 4 mph 92% 0.040 in 58.00 W/m2
07:59 64.0 °F 62.0 °F 29.8 in South 3 mph 4 mph 92% 0.030 in 65.00 W/m2
08:04 64.0 °F 62.0 °F 29.8 in South 4 mph 4 mph 92% 0.020 in 76.00 W/m2
08:09 64.0 °F 61.0 °F 29.8 in SSE 4 mph 4 mph 91% 0.020 in 77.00 W/m2
08:14 64.0 °F 62.0 °F 29.9 in WNW 7 mph 7 mph 92% 0.010 in 84.00 W/m2
08:19 64.0 °F 62.0 °F 29.9 in NW 9 mph 9 mph 92% 0.010 in 114.00 W/m2
08:24 65.0 °F 62.0 °F 29.9 in WNW 8 mph 8 mph 92% 0.010 in 127.00 W/m2
08:29 65.0 °F 62.0 °F 29.9 in West 8 mph 8 mph 92% 0.000 in 137.00 W/m2
08:34 65.0 °F 62.0 °F 29.9 in WNW 6 mph 7 mph 92% 0.000 in 155.00 W/m2
08:39 65.0 °F 62.0 °F 29.9 in NW 8 mph 9 mph 92% 0.000 in 162.00 W/m2
08:44 65.0 °F 62.0 °F 29.9 in NW 7 mph 9 mph 92% 0.000 in 172.00 W/m2
08:49 65.0 °F 62.0 °F 29.9 in WNW 5 mph 6 mph 92% 0.000 in 172.00 W/m2
08:54 65.0 °F 63.0 °F 29.9 in WNW 5 mph 6 mph 92% 0.000 in 186.00 W/m2
08:59 65.0 °F 63.0 °F 29.9 in WNW 5 mph 7 mph 92% 0.000 in 199.00 W/m2
09:04 65.0 °F 63.0 °F 29.9 in WNW 9 mph 9 mph 92% 0.000 in 211.00 W/m2
09:09 65.0 °F 63.0 °F 29.9 in WNW 4 mph 9 mph 92% 0.000 in 220.00 W/m2
09:14 65.0 °F 63.0 °F 29.9 in West 8 mph 8 mph 92% 0.000 in 246.00 W/m2
09:19 65.0 °F 63.0 °F 29.9 in WNW 5 mph 8 mph 92% 0.000 in 265.00 W/m2
09:24 66.0 °F 63.0 °F 29.9 in West 4 mph 4 mph 92% 0.000 in 287.00 W/m2
09:29 66.0 °F 63.0 °F 29.9 in NW 6 mph 7 mph 92% 0.000 in 287.00 W/m2
09:34 66.0 °F 63.0 °F 29.9 in NW 8 mph 8 mph 92% 0.000 in 313.00 W/m2
09:39 66.0 °F 63.0 °F 29.9 in NW 6 mph 8 mph 92% 0.000 in 313.00 W/m2
09:44 66.0 °F 63.0 °F 29.9 in NNW 8 mph 8 mph 92% 0.000 in 301.00 W/m2
09:49 66.0 °F 63.0 °F 29.9 in NW 8 mph 9 mph 92% 0.000 in 348.00 W/m2
09:54 66.0 °F 64.0 °F 29.9 in NW 9 mph 9 mph 92% 0.000 in 348.00 W/m2
09:59 66.0 °F 64.0 °F 29.9 in WNW 8 mph 9 mph 92% 0.000 in 355.00 W/m2
10:04 66.0 °F 64.0 °F 29.9 in WNW 7 mph 8 mph 91% 0.000 in 570.00 W/m2
10:09 67.0 °F 64.0 °F 29.9 in WNW 7 mph 9 mph 91% 0.000 in 570.00 W/m2
10:14 67.0 °F 64.0 °F 29.9 in NW 9 mph 9 mph 91% 0.000 in 496.00 W/m2
10:19 67.0 °F 64.0 °F 29.9 in NNW 9 mph 9 mph 91% 0.000 in 605.00 W/m2
10:24 68.0 °F 65.0 °F 29.9 in NW 8 mph 9 mph 90% 0.000 in 737.00 W/m2
10:29 68.0 °F 65.0 °F 29.9 in NW 11 mph 11 mph 90% 0.000 in 737.00 W/m2
10:34 69.0 °F 65.0 °F 29.9 in NNW 8 mph 9 mph 89% 0.000 in 737.00 W/m2
10:39 69.0 °F 65.0 °F 29.9 in NW 9 mph 9 mph 88% 0.000 in 292.00 W/m2
10:44 69.0 °F 65.0 °F 29.9 in NW 7 mph 12 mph 87% 0.000 in 631.00 W/m2
10:49 69.0 °F 65.0 °F 29.9 in WNW 9 mph 12 mph 86% 0.000 in 698.00 W/m2
10:54 70.0 °F 65.0 °F 29.9 in NW 9 mph 9 mph 85% 0.000 in 698.00 W/m2
10:59 71.0 °F 65.0 °F 29.9 in WNW 8 mph 9 mph 84% 0.000 in 798.00 W/m2
11:04 71.0 °F 65.0 °F 29.9 in NW 9 mph 11 mph 83% 0.000 in 844.00 W/m2
11:09 71.0 °F 65.0 °F 29.9 in WNW 9 mph 9 mph 81% 0.000 in 844.00 W/m2
11:14 72.0 °F 64.0 °F 29.9 in NNW 9 mph 11 mph 78% 0.000 in 1002.00 W/m2
11:19 72.0 °F 64.0 °F 29.9 in WNW 7 mph 8 mph 77% 0.000 in 1027.00 W/m2
11:24 73.0 °F 65.0 °F 29.9 in NNW 9 mph 9 mph 76% 0.000 in 993.00 W/m2
11:29 73.0 °F 65.0 °F 29.9 in NW 10 mph 11 mph 76% 0.000 in 967.00 W/m2
11:34 74.0 °F 65.0 °F 29.9 in NNW 10 mph 10 mph 74% 0.000 in 940.00 W/m2
11:39 74.0 °F 65.0 °F 29.9 in NW 8 mph 10 mph 74% 0.000 in 932.00 W/m2
11:44 75.0 °F 65.0 °F 29.9 in NNW 5 mph 6 mph 73% 0.000 in 958.00 W/m2
11:49 75.0 °F 65.0 °F 29.9 in WSW 8 mph 8 mph 72% 0.000 in 1018.00 W/m2
11:54 75.0 °F 65.0 °F 29.9 in West 8 mph 9 mph 71% 0.000 in 946.00 W/m2
11:59 75.0 °F 65.0 °F 29.9 in WSW 7 mph 9 mph 70% 0.000 in 969.00 W/m2
12:04 76.0 °F 65.0 °F 29.9 in NW 10 mph 10 mph 69% 0.000 in 942.00 W/m2
12:09 76.0 °F 65.0 °F 29.9 in NNW 8 mph 10 mph 69% 0.000 in 977.00 W/m2
12:14 76.0 °F 65.0 °F 29.9 in West 5 mph 5 mph 69% 0.000 in 933.00 W/m2
12:19 77.0 °F 66.0 °F 29.9 in WSW 7 mph 7 mph 69% 0.000 in 953.00 W/m2
12:24 77.0 °F 66.0 °F 29.9 in West 6 mph 7 mph 68% 0.000 in 984.00 W/m2
12:29 78.0 °F 65.0 °F 29.9 in WSW 4 mph 5 mph 67% 0.000 in 990.00 W/m2
12:34 78.0 °F 66.0 °F 29.9 in WSW 6 mph 9 mph 66% 0.000 in 967.00 W/m2
12:39 78.0 °F 65.0 °F 29.9 in WNW 6 mph 9 mph 64% 0.000 in 868.00 W/m2
12:44 78.0 °F 65.0 °F 29.9 in North 4 mph 5 mph 64% 0.000 in 868.00 W/m2
12:49 79.0 °F 66.0 °F 29.9 in SW 6 mph 6 mph 66% 0.000 in 911.00 W/m2
12:54 79.0 °F 66.0 °F 29.9 in NW 8 mph 8 mph 64% 0.000 in 944.00 W/m2
12:59 79.0 °F 66.0 °F 29.9 in West 5 mph 6 mph 64% 0.000 in 1000.00 W/m2
13:04 79.0 °F 66.0 °F 29.9 in NW 5 mph 6 mph 63% 0.000 in 965.00 W/m2
13:09 80.0 °F 66.0 °F 29.9 in WNW 8 mph 8 mph 63% 0.000 in 970.00 W/m2
13:14 79.0 °F 65.0 °F 29.9 in NNW 3 mph 8 mph 62% 0.000 in 1028.00 W/m2
13:19 80.0 °F 66.0 °F 29.9 in NW 5 mph 7 mph 63% 0.000 in 1151.00 W/m2
13:24 80.0 °F 66.0 °F 29.9 in West 8 mph 9 mph 63% 0.000 in 1144.00 W/m2
13:29 80.0 °F 66.0 °F 29.9 in WNW 8 mph 8 mph 61% 0.000 in 1116.00 W/m2
13:34 81.0 °F 66.0 °F 29.9 in NW 10 mph 10 mph 61% 0.000 in 1129.00 W/m2
13:39 81.0 °F 66.0 °F 29.9 in NW 9 mph 10 mph 61% 0.000 in 1129.00 W/m2
13:44 81.0 °F 66.0 °F 29.9 in NNW 6 mph 10 mph 61% 0.000 in 1134.00 W/m2
13:49 81.0 °F 66.0 °F 29.9 in West 9 mph 9 mph 60% 0.000 in 1071.00 W/m2
13:54 82.0 °F 66.0 °F 29.9 in West 8 mph 9 mph 60% 0.000 in 1092.00 W/m2
13:59 82.0 °F 66.0 °F 29.9 in WSW 10 mph 10 mph 59% 0.000 in 1092.00 W/m2
14:04 82.0 °F 66.0 °F 29.9 in West 11 mph 11 mph 58% 0.000 in 1118.00 W/m2
14:09 82.0 °F 66.0 °F 29.9 in NW 11 mph 12 mph 58% 0.000 in 341.00 W/m2
14:14 82.0 °F 66.0 °F 29.9 in NW 10 mph 12 mph 59% 0.000 in 334.00 W/m2
14:19 81.0 °F 66.0 °F 29.9 in NW 9 mph 10 mph 60% 0.000 in 1162.00 W/m2
14:24 81.0 °F 65.0 °F 29.9 in NW 9 mph 9 mph 59% 0.000 in 1114.00 W/m2
14:29 81.0 °F 65.0 °F 29.9 in NNW 11 mph 11 mph 59% 0.000 in 1148.00 W/m2
14:34 81.0 °F 66.0 °F 29.9 in NW 9 mph 11 mph 60% 0.000 in 1067.00 W/m2
14:39 81.0 °F 66.0 °F 29.9 in NW 10 mph 11 mph 60% 0.000 in 1060.00 W/m2
14:44 81.0 °F 66.0 °F 29.9 in NW 7 mph 11 mph 59% 0.000 in 1076.00 W/m2
14:49 81.0 °F 66.0 °F 29.9 in NW 11 mph 12 mph 60% 0.000 in 958.00 W/m2
14:54 81.0 °F 65.0 °F 29.9 in NW 8 mph 8 mph 58% 0.000 in 1032.00 W/m2
14:59 81.0 °F 65.0 °F 29.9 in NNW 11 mph 12 mph 58% 0.000 in 1046.00 W/m2
15:04 81.0 °F 66.0 °F 29.9 in NNW 11 mph 11 mph 59% 0.000 in 1028.00 W/m2
15:09 82.0 °F 66.0 °F 29.9 in WNW 11 mph 11 mph 58% 0.000 in 905.00 W/m2
15:14 82.0 °F 66.0 °F 29.9 in NW 8 mph 9 mph 58% 0.000 in 895.00 W/m2
15:19 83.0 °F 65.0 °F 29.9 in WNW 5 mph 8 mph 56% 0.000 in 888.00 W/m2
15:24 83.0 °F 65.0 °F 29.9 in West 9 mph 10 mph 56% 0.000 in 884.00 W/m2
15:29 83.0 °F 64.0 °F 29.9 in WNW 10 mph 13 mph 53% 0.000 in 881.00 W/m2
15:34 83.0 °F 64.0 °F 29.9 in WNW 10 mph 10 mph 54% 0.000 in 889.00 W/m2
15:39 83.0 °F 65.0 °F 29.9 in NNW 11 mph 12 mph 55% 0.000 in 858.00 W/m2
15:44 83.0 °F 64.0 °F 29.9 in NNW 13 mph 13 mph 54% 0.000 in 831.00 W/m2
15:49 83.0 °F 64.0 °F 29.9 in WNW 9 mph 12 mph 53% 0.000 in 823.00 W/m2
15:54 83.0 °F 64.0 °F 29.9 in West 9 mph 12 mph 52% 0.000 in 814.00 W/m2
15:59 83.0 °F 64.0 °F 29.9 in NW 10 mph 10 mph 53% 0.000 in 788.00 W/m2
16:04 83.0 °F 64.0 °F 29.9 in West 9 mph 9 mph 53% 0.000 in 788.00 W/m2
16:09 83.0 °F 65.0 °F 29.9 in West 10 mph 12 mph 55% 0.000 in 782.00 W/m2
16:14 83.0 °F 66.0 °F 29.9 in NNW 10 mph 11 mph 56% 0.000 in 763.00 W/m2
16:19 83.0 °F 66.0 °F 29.9 in West 7 mph 9 mph 56% 0.000 in 752.00 W/m2
16:24 84.0 °F 67.0 °F 29.9 in NW 8 mph 8 mph 58% 0.000 in 738.00 W/m2
16:29 84.0 °F 66.0 °F 29.9 in NW 9 mph 10 mph 56% 0.000 in 719.00 W/m2
16:34 84.0 °F 66.0 °F 29.9 in NNW 9 mph 10 mph 56% 0.000 in 707.00 W/m2
16:39 84.0 °F 66.0 °F 29.9 in NNW 12 mph 12 mph 55% 0.000 in 687.00 W/m2
16:44 84.0 °F 66.0 °F 29.9 in NW 8 mph 12 mph 55% 0.000 in 671.00 W/m2
16:49 84.0 °F 66.0 °F 29.9 in WNW 10 mph 11 mph 55% 0.000 in 654.00 W/m2
16:54 84.0 °F 65.0 °F 29.9 in NW 11 mph 11 mph 54% 0.000 in 640.00 W/m2
16:59 84.0 °F 65.0 °F 29.9 in NNW 10 mph 10 mph 53% 0.000 in 626.00 W/m2
17:04 84.0 °F 65.0 °F 29.9 in NW 13 mph 13 mph 53% 0.000 in 612.00 W/m2
17:09 83.0 °F 63.0 °F 29.9 in West 10 mph 11 mph 50% 0.000 in 587.00 W/m2
17:14 83.0 °F 64.0 °F 29.9 in NW 8 mph 10 mph 52% 0.000 in 577.00 W/m2
17:19 83.0 °F 64.0 °F 29.9 in West 7 mph 7 mph 52% 0.000 in 557.00 W/m2
17:24 84.0 °F 64.0 °F 29.9 in WNW 12 mph 12 mph 51% 0.000 in 540.00 W/m2
17:29 84.0 °F 64.0 °F 29.9 in WNW 10 mph 10 mph 51% 0.000 in 519.00 W/m2
17:34 84.0 °F 64.0 °F 29.9 in NW 10 mph 10 mph 52% 0.000 in 503.00 W/m2
17:39 83.0 °F 64.0 °F 29.9 in NNW 9 mph 11 mph 53% 0.000 in 483.00 W/m2
17:44 83.0 °F 65.0 °F 29.9 in NW 6 mph 11 mph 54% 0.000 in 466.00 W/m2
17:49 83.0 °F 65.0 °F 29.9 in NNW 8 mph 8 mph 54% 0.000 in 445.00 W/m2
17:54 83.0 °F 64.0 °F 29.9 in NNW 8 mph 8 mph 53% 0.000 in 436.00 W/m2
17:59 83.0 °F 64.0 °F 29.9 in NNW 6 mph 9 mph 53% 0.000 in 417.00 W/m2
18:04 83.0 °F 64.0 °F 29.9 in NW 5 mph 9 mph 52% 0.000 in 396.00 W/m2
18:09 83.0 °F 64.0 °F 29.9 in NNW 8 mph 9 mph 53% 0.000 in 376.00 W/m2
18:14 83.0 °F 64.0 °F 29.9 in NW 9 mph 9 mph 53% 0.000 in 357.00 W/m2
18:19 83.0 °F 64.0 °F 29.9 in NW 8 mph 9 mph 53% 0.000 in 343.00 W/m2
18:24 83.0 °F 64.0 °F 29.9 in NW 6 mph 9 mph 53% 0.000 in 325.00 W/m2
18:29 82.0 °F 64.0 °F 29.9 in NW 8 mph 8 mph 53% 0.000 in 302.00 W/m2
18:34 82.0 °F 63.0 °F 29.9 in WNW 10 mph 10 mph 53% 0.000 in 285.00 W/m2
18:39 82.0 °F 63.0 °F 29.9 in NW 8 mph 10 mph 53% 0.000 in 264.00 W/m2
18:44 82.0 °F 63.0 °F 29.9 in WNW 5 mph 6 mph 53% 0.000 in 253.00 W/m2
18:49 82.0 °F 63.0 °F 29.9 in NW 5 mph 6 mph 53% 0.000 in 234.00 W/m2
18:54 82.0 °F 64.0 °F 29.9 in West 4 mph 5 mph 54% 0.000 in 214.00 W/m2
18:59 82.0 °F 64.0 °F 29.9 in NNW 9 mph 9 mph 54% 0.000 in 197.00 W/m2
19:04 81.0 °F 63.0 °F 29.9 in NW 9 mph 9 mph 54% 0.000 in 176.00 W/m2
19:09 81.0 °F 63.0 °F 29.9 in WNW 5 mph 6 mph 55% 0.000 in 155.00 W/m2
19:14 81.0 °F 63.0 °F 29.9 in NW 4 mph 4 mph 55% 0.000 in 134.00 W/m2
19:19 81.0 °F 63.0 °F 29.9 in NNW 6 mph 6 mph 55% 0.000 in 65.00 W/m2
19:24 80.0 °F 63.0 °F 29.9 in NNW 6 mph 6 mph 55% 0.000 in 44.00 W/m2
19:29 80.0 °F 62.0 °F 29.9 in NNW 8 mph 8 mph 55% 0.000 in 39.00 W/m2
19:34 79.0 °F 62.0 °F 29.9 in NNW 5 mph 6 mph 56% 0.000 in 33.00 W/m2
19:39 79.0 °F 62.0 °F 29.9 in North 4 mph 5 mph 57% 0.000 in 32.00 W/m2
19:44 79.0 °F 62.0 °F 29.9 in North 3 mph 3 mph 57% 0.000 in 26.00 W/m2
19:49 79.0 °F 62.0 °F 29.9 in NNW 4 mph 4 mph 57% 0.000 in 23.00 W/m2
19:54 78.0 °F 62.0 °F 29.9 in NNW 3 mph 4 mph 57% 0.000 in 21.00 W/m2
19:59 78.0 °F 62.0 °F 29.9 in NNE 4 mph 4 mph 57% 0.000 in 18.00 W/m2
20:04 78.0 °F 62.0 °F 29.9 in NNW 4 mph 4 mph 57% 0.000 in 12.00 W/m2
20:09 78.0 °F 62.0 °F 29.9 in NW 3 mph 4 mph 58% 0.000 in 11.00 W/m2
20:14 77.0 °F 61.0 °F 29.9 in NW 2 mph 2 mph 58% 0.000 in 7.00 W/m2
20:19 77.0 °F 62.0 °F 29.9 in NW 3 mph 3 mph 59% 0.000 in 0.00 W/m2
20:24 77.0 °F 62.0 °F 29.9 in NW 2 mph 3 mph 59% 0.000 in 0.00 W/m2
20:29 77.0 °F 61.0 °F 29.9 in NW 3 mph 3 mph 59% 0.000 in 0.00 W/m2
20:34 77.0 °F 62.0 °F 29.9 in NW 2 mph 2 mph 60% 0.000 in 0.00 W/m2
20:39 77.0 °F 62.0 °F 29.9 in NW 2 mph 2 mph 60% 0.000 in 0.00 W/m2
20:44 76.0 °F 62.0 °F 29.9 in NW 3 mph 3 mph 61% 0.000 in 0.00 W/m2
20:49 76.0 °F 62.0 °F 29.9 in NW 2 mph 2 mph 61% 0.000 in 0.00 W/m2
20:54 76.0 °F 61.0 °F 29.9 in NW 2 mph 2 mph 61% 0.000 in 0.00 W/m2
20:59 75.0 °F 62.0 °F 29.9 in NW 2 mph 2 mph 62% 0.000 in 0.00 W/m2
21:04 75.0 °F 61.0 °F 29.9 in NW 2 mph 2 mph 62% 0.000 in 0.00 W/m2
21:09 75.0 °F 61.0 °F 29.9 in NW 2 mph 2 mph 63% 0.000 in 0.00 W/m2
21:14 75.0 °F 61.0 °F 29.9 in NW 2 mph 2 mph 63% 0.000 in 0.00 W/m2
21:19 74.0 °F 61.0 °F 30.0 in NW 2 mph 2 mph 64% 0.000 in 0.00 W/m2
21:24 74.0 °F 61.0 °F 30.0 in NW 2 mph 2 mph 65% 0.000 in 0.00 W/m2
21:29 74.0 °F 61.0 °F 30.0 in NW 2 mph 2 mph 65% 0.000 in 0.00 W/m2
21:34 74.0 °F 61.0 °F 30.0 in NW 1 mph 2 mph 65% 0.000 in 0.00 W/m2
21:39 73.0 °F 61.0 °F 30.0 in NW 3 mph 3 mph 65% 0.000 in 0.00 W/m2
21:44 73.0 °F 61.0 °F 30.0 in NW 2 mph 2 mph 66% 0.000 in 0.00 W/m2
21:49 73.0 °F 61.0 °F 30.0 in NW 2 mph 2 mph 66% 0.000 in 0.00 W/m2
21:54 73.0 °F 61.0 °F 30.0 in NW 2 mph 2 mph 67% 0.000 in 0.00 W/m2
21:59 72.0 °F 61.0 °F 30.0 in NW 2 mph 3 mph 67% 0.000 in 0.00 W/m2
22:04 72.0 °F 61.0 °F 30.0 in NW 3 mph 3 mph 68% 0.000 in 0.00 W/m2
22:09 72.0 °F 61.0 °F 30.0 in NW 2 mph 3 mph 68% 0.000 in 0.00 W/m2
22:14 72.0 °F 61.0 °F 30.0 in NW 1 mph 2 mph 68% 0.000 in 0.00 W/m2
22:19 72.0 °F 61.0 °F 30.0 in NW 1 mph 1 mph 68% 0.000 in 0.00 W/m2
22:24 72.0 °F 60.0 °F 30.0 in NW 3 mph 3 mph 68% 0.000 in 0.00 W/m2
22:29 71.0 °F 61.0 °F 30.0 in NW 1 mph 2 mph 69% 0.000 in 0.00 W/m2
22:34 71.0 °F 61.0 °F 30.0 in NW 2 mph 2 mph 69% 0.000 in 0.00 W/m2
22:39 71.0 °F 60.0 °F 30.0 in NW 1 mph 2 mph 69% 0.000 in 0.00 W/m2
22:44 71.0 °F 60.0 °F 30.0 in NW 1 mph 1 mph 69% 0.000 in 0.00 W/m2
22:49 71.0 °F 60.0 °F 30.0 in Calm   1 mph 69% 0.000 in 0.00 W/m2
22:54 70.0 °F 60.0 °F 30.0 in Calm     69% 0.000 in 0.00 W/m2
22:59 70.0 °F 60.0 °F 30.0 in NW 1 mph 1 mph 69% 0.000 in 0.00 W/m2
23:04 70.0 °F 60.0 °F 30.0 in NW 1 mph 1 mph 70% 0.000 in 0.00 W/m2
23:09 70.0 °F 59.0 °F 30.0 in NW 2 mph 2 mph 70% 0.000 in 0.00 W/m2
23:14 70.0 °F 60.0 °F 30.0 in NW 1 mph 2 mph 71% 0.000 in 0.00 W/m2
23:19 69.0 °F 60.0 °F 30.0 in NW 2 mph 2 mph 71% 0.000 in 0.00 W/m2
23:24 69.0 °F 60.0 °F 30.0 in NW 2 mph 2 mph 71% 0.000 in 0.00 W/m2
23:29 69.0 °F 59.0 °F 30.0 in NW 2 mph 2 mph 71% 0.000 in 0.00 W/m2
23:34 69.0 °F 59.0 °F 30.0 in NW 2 mph 2 mph 72% 0.000 in 0.00 W/m2
23:39 69.0 °F 59.0 °F 30.0 in NW 1 mph 2 mph 72% 0.000 in 0.00 W/m2
23:44 68.0 °F 59.0 °F 30.0 in NW 1 mph 1 mph 72% 0.000 in 0.00 W/m2
23:49 68.0 °F 59.0 °F 30.0 in NW 1 mph 2 mph 72% 0.000 in 0.00 W/m2
23:54 68.0 °F 59.0 °F 30.0 in NW 1 mph 1 mph 72% 0.000 in 0.00 W/m2
23:59 68.0 °F 59.0 °F 30.0 in NW 1 mph 1 mph 73% 0.000 in 0.00 W/m2
Villages of Bridgestone, Spring, TX USA
Compliments of Weather Underground - 4 mb